Time;durP1;ratioP1;P1;durP2;ratioP2;P2;SDS_P1;SDS_P2;PMS_P1;PMS_P2;Temp;Humidity;BMP_temperature;BMP_pressure;BME280_temperature;BME280_humidity;BME280_pressure;Samples;Min_cycle;Max_cycle;Signal;HPM_P1;HPM_P2
2024/01/10 00:01:03;;;;;;;6.63;2.60;;;;;;;-0.79;41.51;103043.72;4911291;28;114855;-76
2024/01/10 00:03:31;;;;;;;5.63;2.80;;;;;;;-0.79;41.66;103048.06;4909525;28;125737;-76
2024/01/10 00:05:58;;;;;;;10.73;2.90;;;;;;;-0.81;41.45;103047.06;4927978;28;123739;-76
2024/01/10 00:08:26;;;;;;;6.30;2.70;;;;;;;-0.83;41.69;103046.13;4905482;28;113584;-76
2024/01/10 00:10:56;;;;;;;6.05;2.78;;;;;;;-0.84;41.43;103044.38;4909228;28;114996;-76
2024/01/10 00:13:23;;;;;;;5.93;2.63;;;;;;;-0.87;41.56;103044.25;4920255;28;125069;-76
2024/01/10 00:15:50;;;;;;;5.93;2.92;;;;;;;-0.89;41.69;103045.91;4892646;28;123902;-76
2024/01/10 00:18:17;;;;;;;7.35;2.75;;;;;;;-0.91;41.52;103037.16;4911521;28;115307;-75
2024/01/10 00:20:45;;;;;;;5.57;2.88;;;;;;;-0.92;41.76;103031.09;4929382;28;113700;-75
2024/01/10 00:23:12;;;;;;;5.65;2.80;;;;;;;-0.96;41.76;103033.50;4928309;28;123943;-75
2024/01/10 00:25:39;;;;;;;4.68;2.40;;;;;;;-0.95;41.90;103032.69;4923525;28;122896;-75
2024/01/10 00:28:06;;;;;;;5.80;2.95;;;;;;;-0.95;41.73;103030.09;4923073;28;114324;-75
2024/01/10 00:30:33;;;;;;;6.90;2.88;;;;;;;-0.97;41.86;103032.63;4894891;28;114729;-75
2024/01/10 00:33:00;;;;;;;4.97;2.97;;;;;;;-0.99;41.75;103024.75;4908314;28;124857;-75
2024/01/10 00:35:28;;;;;;;6.05;2.70;;;;;;;-1.01;42.05;103020.34;4925255;28;123933;-75
2024/01/10 00:37:55;;;;;;;4.88;2.55;;;;;;;-1.02;41.74;103019.47;4891141;28;115660;-75
2024/01/10 00:40:23;;;;;;;7.22;2.70;;;;;;;-1.04;41.85;103021.09;4923893;28;113655;-75
2024/01/10 00:42:50;;;;;;;6.88;2.95;;;;;;;-1.04;41.75;103021.09;4905324;28;125225;-75
2024/01/10 00:45:17;;;;;;;5.43;2.50;;;;;;;-1.05;42.02;103019.34;4910432;28;123905;-74
2024/01/10 00:47:44;;;;;;;5.43;2.70;;;;;;;-1.05;41.88;103019.34;4914299;28;115122;-75
2024/01/10 00:50:11;;;;;;;4.85;2.47;;;;;;;-1.05;42.01;103024.53;4922342;28;114457;-75
2024/01/10 00:52:39;;;;;;;8.20;2.85;;;;;;;-1.06;41.73;103027.94;4911642;28;126361;-75
2024/01/10 00:55:06;;;;;;;6.53;2.80;;;;;;;-1.08;42.22;103019.19;4905594;28;121921;-75
2024/01/10 00:57:33;;;;;;;5.70;2.83;;;;;;;-1.07;42.10;103018.38;4895420;28;115506;-75
2024/01/10 01:00:00;;;;;;;8.23;2.90;;;;;;;-1.07;41.66;103015.78;4913095;28;113825;-75
2024/01/10 01:02:28;;;;;;;6.13;3.05;;;;;;;-1.08;42.08;103003.59;4913204;28;124218;-75
2024/01/10 01:04:55;;;;;;;7.00;2.63;;;;;;;-1.09;42.01;103007.03;4915488;28;124163;-75
2024/01/10 01:07:22;;;;;;;6.38;2.88;;;;;;;-1.12;42.02;103006.91;4895686;28;113777;-76
2024/01/10 01:09:49;;;;;;;6.88;2.97;;;;;;;-1.13;42.08;103007.75;4902773;28;114707;-75
2024/01/10 01:12:16;;;;;;;6.28;2.72;;;;;;;-1.15;42.57;103009.38;4896736;28;124700;-74
2024/01/10 01:14:44;;;;;;;6.13;3.00;;;;;;;-1.16;42.05;103005.03;4924879;28;124584;-75
2024/01/10 01:17:11;;;;;;;5.32;2.95;;;;;;;-1.17;42.23;103013.66;4907561;28;114654;-74
2024/01/10 01:19:38;;;;;;;6.60;2.60;;;;;;;-1.17;42.25;103013.66;4911058;28;114660;-75
2024/01/10 01:22:05;;;;;;;5.20;2.67;;;;;;;-1.18;42.33;103011.88;4921499;28;123834;-74
2024/01/10 01:24:32;;;;;;;4.43;2.38;;;;;;;-1.19;42.35;103010.09;4926702;28;123807;-74
2024/01/10 01:27:00;;;;;;;4.13;2.63;;;;;;;-1.19;42.25;103010.09;4889345;28;113698;-74
2024/01/10 01:29:28;;;;;;;5.28;2.88;;;;;;;-1.20;42.33;103005.75;4924177;28;113746;-74
2024/01/10 01:31:55;;;;;;;6.43;2.40;;;;;;;-1.23;42.14;103003.03;4904504;28;125743;-74
2024/01/10 01:34:22;;;;;;;5.53;2.50;;;;;;;-1.25;42.46;103010.75;4908302;28;123751;-75
2024/01/10 01:36:51;;;;;;;5.47;2.67;;;;;;;-1.28;42.29;103009.75;4927754;28;115126;-74
2024/01/10 01:39:19;;;;;;;5.25;2.60;;;;;;;-1.28;42.25;103009.75;4926262;28;114713;-74
2024/01/10 01:41:46;;;;;;;6.28;2.83;;;;;;;-1.27;42.59;103001.13;4918141;28;123770;-74
2024/01/10 01:44:13;;;;;;;6.40;2.60;;;;;;;-1.29;42.64;102997.59;4903639;28;125772;-74
2024/01/10 01:46:40;;;;;;;6.75;2.83;;;;;;;-1.29;42.28;103002.78;4928655;28;114466;-75
2024/01/10 01:49:10;;;;;;;5.20;2.67;;;;;;;-1.31;42.66;103009.66;4908937;28;113252;-74
2024/01/10 01:51:39;;;;;;;5.15;2.50;;;;;;;-1.32;42.41;103002.66;4917580;28;123366;-74
2024/01/10 01:54:08;;;;;;;6.63;2.97;;;;;;;-1.34;42.57;102999.13;4898887;28;121507;-75
2024/01/10 01:56:36;;;;;;;5.90;2.80;;;;;;;-1.35;42.56;103002.56;4915500;28;113979;-74
2024/01/10 01:59:04;;;;;;;7.60;2.90;;;;;;;-1.37;42.58;102995.56;4927394;28;113963;-75
2024/01/10 02:01:32;;;;;;;6.85;2.97;;;;;;;-1.37;42.69;102995.56;4912377;28;125256;-75
2024/01/10 02:04:01;;;;;;;6.53;2.88;;;;;;;-1.38;42.66;102993.78;4889510;28;124887;-75
2024/01/10 02:06:29;;;;;;;6.85;3.03;;;;;;;-1.39;42.82;102986.84;4924848;28;115414;-75
2024/01/10 02:08:57;;;;;;;7.15;2.80;;;;;;;-1.39;42.78;102989.44;4923651;28;113948;-75
2024/01/10 02:11:25;;;;;;;5.38;3.00;;;;;;;-1.40;42.68;102982.44;4908695;28;124003;-75
2024/01/10 02:13:55;;;;;;;8.90;2.88;;;;;;;-1.40;42.68;102979.84;4903616;28;124146;-74
2024/01/10 02:16:24;;;;;;;12.88;3.10;;;;;;;-1.41;42.67;102988.50;4909792;28;114108;-74
2024/01/10 02:18:51;;;;;;;5.50;2.78;;;;;;;-1.42;42.99;102986.72;4923984;28;113872;-74
2024/01/10 02:21:22;;;;;;;7.05;3.15;;;;;;;-1.42;42.84;102986.72;4911968;28;125468;-75
2024/01/10 02:23:49;;;;;;;6.07;3.05;;;;;;;-1.45;42.86;102984.00;4921684;28;124567;-74
2024/01/10 02:26:16;;;;;;;5.50;2.70;;;;;;;-1.45;42.82;102984.00;4903898;28;115613;-74
2024/01/10 02:28:44;;;;;;;4.53;2.92;;;;;;;-1.46;42.96;102984.81;4927196;28;114616;-75
2024/01/10 02:31:11;;;;;;;5.10;2.83;;;;;;;-1.47;42.93;102980.47;4910375;28;123934;-74
2024/01/10 02:33:39;;;;;;;6.47;2.60;;;;;;;-1.47;42.97;102983.06;4925735;28;124279;-74
2024/01/10 02:36:06;;;;;;;7.93;3.30;;;;;;;-1.48;43.45;102981.28;4909820;28;114055;-74
2024/01/10 02:38:33;;;;;;;5.22;2.70;;;;;;;-1.47;43.32;102977.88;4906044;28;114134;-73
2024/01/10 02:41:02;;;;;;;6.03;3.00;;;;;;;-1.47;43.24;102977.88;4926077;28;124466;-75
2024/01/10 02:43:30;;;;;;;6.25;3.15;;;;;;;-1.47;43.20;102977.88;4907573;28;124646;-74
2024/01/10 02:45:58;;;;;;;7.32;2.97;;;;;;;-1.47;43.15;102980.47;4904637;28;114378;-75
2024/01/10 02:48:25;;;;;;;7.20;3.00;;;;;;;-1.46;43.32;102983.94;4909712;28;114802;-75
2024/01/10 02:50:54;;;;;;;6.85;2.80;;;;;;;-1.46;43.09;102978.75;4925176;28;124242;-75
2024/01/10 02:53:21;;;;;;;6.38;2.88;;;;;;;-1.45;43.26;102981.41;4925566;28;123908;-75
2024/01/10 02:55:50;;;;;;;7.63;3.40;;;;;;;-1.45;43.83;102981.41;4911937;28;114755;-75
2024/01/10 02:58:17;;;;;;;5.70;2.95;;;;;;;-1.44;43.34;102988.34;4925802;28;114363;-75
2024/01/10 03:00:44;;;;;;;5.55;2.72;;;;;;;-1.43;43.25;102992.75;4902697;28;124264;-75
2024/01/10 03:03:12;;;;;;;7.30;3.08;;;;;;;-1.43;43.19;102984.94;4904607;28;124879;-75
2024/01/10 03:05:39;;;;;;;6.78;2.88;;;;;;;-1.43;43.47;102979.75;4922689;28;115065;-75
2024/01/10 03:08:06;;;;;;;5.72;2.83;;;;;;;-1.43;43.14;102979.75;4908239;28;113710;-74
2024/01/10 03:10:34;;;;;;;7.22;3.20;;;;;;;-1.45;43.11;102976.22;4922935;28;123808;-75
2024/01/10 03:13:01;;;;;;;11.05;3.15;;;;;;;-1.43;43.13;102979.75;4920223;28;123775;-75
2024/01/10 03:15:28;;;;;;;5.88;2.63;;;;;;;-1.44;43.20;102972.78;4924929;28;116285;-75
2024/01/10 03:17:55;;;;;;;6.53;3.13;;;;;;;-1.45;43.10;102971.00;4922224;28;114866;-75
2024/01/10 03:20:23;;;;;;;6.07;3.00;;;;;;;-1.46;43.30;102969.22;4902451;28;123779;-75
2024/01/10 03:22:50;;;;;;;7.45;2.80;;;;;;;-1.47;43.12;102972.66;4921748;28;124608;-75
2024/01/10 03:25:17;;;;;;;7.18;3.25;;;;;;;-1.48;43.31;102960.50;4925324;28;115220;-75
2024/01/10 03:27:44;;;;;;;10.85;3.05;;;;;;;-1.49;43.34;102963.91;4909710;28;113258;-75
2024/01/10 03:30:12;;;;;;;6.90;3.13;;;;;;;-1.50;43.52;102951.75;4898927;28;123457;-75
2024/01/10 03:32:40;;;;;;;7.47;3.10;;;;;;;-1.51;43.34;102957.75;4922922;28;123360;-75
2024/01/10 03:35:08;;;;;;;8.75;2.95;;;;;;;-1.54;43.65;102947.28;4901682;28;113982;-75
2024/01/10 03:37:35;;;;;;;6.40;2.88;;;;;;;-1.55;43.58;102948.06;4885135;28;116040;-75
2024/01/10 03:40:03;;;;;;;7.53;3.10;;;;;;;-1.56;43.42;102941.13;4894363;28;124353;-75
2024/01/10 03:42:30;;;;;;;5.90;2.67;;;;;;;-1.55;43.39;102948.06;4913637;28;124675;-75
2024/01/10 03:44:57;;;;;;;8.80;2.90;;;;;;;-1.55;43.54;102948.06;4927653;28;116343;-75
2024/01/10 03:47:24;;;;;;;5.07;2.60;;;;;;;-1.56;43.85;102946.31;4929519;28;113998;-74
2024/01/10 03:49:52;;;;;;;9.52;3.30;;;;;;;-1.57;43.41;102945.41;4900638;28;124855;-75
2024/01/10 03:52:19;;;;;;;6.78;2.80;;;;;;;-1.57;43.66;102944.53;4901703;28;123864;-74
2024/01/10 03:54:46;;;;;;;6.15;3.20;;;;;;;-1.59;43.81;102946.19;4910517;28;114957;-75
2024/01/10 03:57:14;;;;;;;6.20;3.10;;;;;;;-1.60;43.68;102949.59;4901223;28;112684;-74
2024/01/10 03:59:41;;;;;;;7.28;2.85;;;;;;;-1.62;43.95;102940.88;4908844;28;124213;-75
2024/01/10 04:02:08;;;;;;;6.13;3.05;;;;;;;-1.63;43.58;102939.13;4902435;28;125050;-75
2024/01/10 04:04:38;;;;;;;6.72;2.83;;;;;;;-1.65;43.66;102936.44;4923289;28;115220;-74
2024/01/10 04:07:06;;;;;;;7.07;2.75;;;;;;;-1.65;43.97;102935.56;4925852;28;117060;-75
2024/01/10 04:09:33;;;;;;;6.65;3.20;;;;;;;-1.67;43.91;102938.09;4906712;28;123071;-75
2024/01/10 04:12:01;;;;;;;6.22;2.67;;;;;;;-1.66;44.03;102928.59;4927472;28;123647;-75
2024/01/10 04:14:28;;;;;;;7.15;3.30;;;;;;;-1.68;43.72;102931.13;4895139;28;115391;-75
2024/01/10 04:16:55;;;;;;;8.05;3.13;;;;;;;-1.68;44.10;102930.25;4909101;28;114865;-75
2024/01/10 04:19:22;;;;;;;9.63;3.20;;;;;;;-1.68;44.02;102925.03;4907437;28;125139;-75
2024/01/10 04:21:49;;;;;;;7.07;3.00;;;;;;;-1.68;43.55;102914.66;4921324;28;123669;-75
2024/01/10 04:24:17;;;;;;;9.60;3.17;;;;;;;-1.69;44.03;102915.50;4921852;28;114503;-75
2024/01/10 04:26:44;;;;;;;8.52;3.10;;;;;;;-1.71;43.92;102915.44;4889776;28;114767;-75
2024/01/10 04:29:11;;;;;;;5.72;2.80;;;;;;;-1.72;43.99;102912.78;4924040;28;124302;-75
2024/01/10 04:31:38;;;;;;;5.88;3.03;;;;;;;-1.73;44.00;102910.97;4921224;28;124423;-75
2024/01/10 04:34:06;;;;;;;7.80;2.75;;;;;;;-1.72;44.26;102913.66;4906784;28;114527;-75
2024/01/10 04:36:34;;;;;;;6.55;2.88;;;;;;;-1.71;43.96;102914.53;4911034;28;113702;-75
2024/01/10 04:39:01;;;;;;;7.32;3.60;;;;;;;-1.70;43.93;102916.31;4905152;28;124468;-75
2024/01/10 04:41:28;;;;;;;7.25;3.00;;;;;;;-1.70;44.07;102905.91;4921826;28;123648;-74
2024/01/10 04:43:55;;;;;;;5.60;2.88;;;;;;;-1.70;44.15;102916.31;4922937;28;114296;-75
2024/01/10 04:46:22;;;;;;;6.45;3.65;;;;;;;-1.71;44.08;102910.25;4930870;28;113795;-76
2024/01/10 04:48:49;;;;;;;6.57;2.72;;;;;;;-1.72;44.22;102917.97;4922286;28;123970;-77
2024/01/10 04:51:17;;;;;;;6.97;3.53;;;;;;;-1.73;44.08;102910.97;4909045;28;124154;-75
2024/01/10 04:53:44;;;;;;;8.10;3.22;;;;;;;-1.76;43.75;102923.03;4897009;28;115403;-75
2024/01/10 04:56:11;;;;;;;7.22;3.13;;;;;;;-1.79;44.28;102917.72;4924519;28;114916;-76
2024/01/10 04:58:38;;;;;;;6.10;2.80;;;;;;;-1.81;44.39;102914.19;4928432;28;123986;-75
2024/01/10 05:01:05;;;;;;;6.75;3.38;;;;;;;-1.82;44.56;102917.59;4925141;28;125136;-75
2024/01/10 05:03:33;;;;;;;8.73;3.30;;;;;;;-1.85;44.41;102927.84;4928620;28;115137;-75
2024/01/10 05:06:00;;;;;;;6.63;3.13;;;;;;;-1.85;44.46;102916.59;4926480;28;114040;-75
2024/01/10 05:08:27;;;;;;;6.60;3.03;;;;;;;-1.88;44.49;102927.75;4924639;28;124529;-75
2024/01/10 05:10:55;;;;;;;8.23;3.50;;;;;;;-1.90;44.45;102929.41;4912331;28;124703;-75
2024/01/10 05:13:22;;;;;;;5.75;2.78;;;;;;;-1.93;44.59;102924.06;4911452;28;114809;-75
2024/01/10 05:15:49;;;;;;;9.43;3.55;;;;;;;-1.95;44.53;102930.94;4907132;28;113963;-75
2024/01/10 05:18:16;;;;;;;6.85;3.00;;;;;;;-1.97;44.75;102922.19;4896935;28;125222;-75
2024/01/10 05:20:44;;;;;;;7.18;3.08;;;;;;;-1.99;44.34;102934.22;4928516;28;123970;-75
2024/01/10 05:23:11;;;;;;;7.57;3.05;;;;;;;-2.00;44.73;102927.25;4912963;28;114418;-75
2024/01/10 05:25:39;;;;;;;5.47;3.00;;;;;;;-2.03;44.65;102917.63;4927516;28;114746;-75
2024/01/10 05:28:06;;;;;;;6.28;2.95;;;;;;;-2.03;44.74;102927.16;4903149;28;125491;-76
2024/01/10 05:30:33;;;;;;;6.85;2.90;;;;;;;-2.03;44.41;102921.94;4921543;28;123770;-75
2024/01/10 05:33:00;;;;;;;8.75;3.22;;;;;;;-2.03;44.51;102916.75;4895746;28;116158;-75
2024/01/10 05:35:28;;;;;;;6.28;2.92;;;;;;;-2.02;44.41;102927.19;4908098;28;113191;-75
2024/01/10 05:37:56;;;;;;;9.68;3.25;;;;;;;-2.03;44.75;102915.03;4906721;28;124377;-75
2024/01/10 05:40:23;;;;;;;4.47;2.55;;;;;;;-2.04;44.83;102914.97;4896243;28;124607;-75
2024/01/10 05:42:50;;;;;;;7.88;3.08;;;;;;;-2.05;44.61;102908.03;4902273;28;115988;-75
2024/01/10 05:45:18;;;;;;;5.90;2.97;;;;;;;-2.07;44.90;102915.75;4912991;28;114634;-75
2024/01/10 05:47:45;;;;;;;6.00;2.55;;;;;;;-2.08;44.96;102906.16;4910698;28;124028;-75
2024/01/10 05:50:13;;;;;;;7.68;2.95;;;;;;;-2.10;44.57;102910.41;4909667;28;124737;-75
2024/01/10 05:52:40;;;;;;;7.50;3.15;;;;;;;-2.11;44.38;102907.75;4924273;28;114632;-75
2024/01/10 05:55:08;;;;;;;7.18;3.38;;;;;;;-2.13;45.17;102904.22;4925467;28;114659;-75
2024/01/10 05:57:36;;;;;;;8.75;3.55;;;;;;;-2.16;45.02;102911.06;4894751;28;125084;-75
2024/01/10 06:00:09;;;;;;;6.70;2.97;;;;;;;-2.18;44.55;102912.72;4911997;28;124142;-75
2024/01/10 06:02:38;;;;;;;9.07;3.85;;;;;;;-2.20;44.74;102914.34;4926205;28;114879;-75
2024/01/10 06:05:07;;;;;;;6.20;3.28;;;;;;;-2.21;44.92;102907.38;4910595;28;112856;-75
2024/01/10 06:07:38;;;;;;;8.00;3.03;;;;;;;-2.23;44.96;102916.81;4927176;28;124440;-75
2024/01/10 06:10:06;;;;;;;6.93;3.05;;;;;;;-2.25;45.16;102915.88;4911320;28;125079;-75
2024/01/10 06:12:33;;;;;;;7.60;3.28;;;;;;;-2.27;44.93;102907.13;4917524;28;113844;-75
2024/01/10 06:15:00;;;;;;;7.47;3.13;;;;;;;-2.28;44.85;102910.56;4928828;28;114761;-75
2024/01/10 06:17:27;;;;;;;7.63;3.25;;;;;;;-2.31;45.01;102905.25;4904842;28;127807;-75
2024/01/10 06:19:54;;;;;;;6.72;3.08;;;;;;;-2.31;45.06;102910.44;4921503;28;124091;-75
2024/01/10 06:22:24;;;;;;;8.40;3.50;;;;;;;-2.32;45.17;102903.44;4895124;28;113779;-75
2024/01/10 06:24:55;;;;;;;8.98;3.65;;;;;;;-2.33;45.04;102906.88;4894982;28;114788;-75
2024/01/10 06:27:23;;;;;;;7.45;3.40;;;;;;;-2.32;44.82;102905.16;4926017;28;124144;-75
2024/01/10 06:29:50;;;;;;;7.53;2.92;;;;;;;-2.34;45.10;102899.91;4910029;28;123630;-75
2024/01/10 06:32:18;;;;;;;7.95;3.25;;;;;;;-2.35;45.01;102905.94;4890938;28;113983;-75
2024/01/10 06:34:45;;;;;;;8.77;3.72;;;;;;;-2.37;45.41;102899.81;4920163;28;115030;-75
2024/01/10 06:37:12;;;;;;;9.82;3.70;;;;;;;-2.37;45.30;102897.22;4907436;28;123579;-75
2024/01/10 06:39:41;;;;;;;7.38;3.00;;;;;;;-2.37;45.40;102894.63;4910195;28;125658;-75
2024/01/10 06:42:10;;;;;;;7.47;3.20;;;;;;;-2.36;45.09;102896.38;4909492;28;114390;-75
2024/01/10 06:44:38;;;;;;;8.25;3.60;;;;;;;-2.36;45.06;102901.56;4903325;28;113978;-75
2024/01/10 06:47:05;;;;;;;8.02;3.78;;;;;;;-2.37;45.59;102894.63;4919310;28;123456;-75
2024/01/10 06:49:32;;;;;;;8.05;3.25;;;;;;;-2.36;45.75;102906.75;4910073;28;123645;-75
2024/01/10 06:52:00;;;;;;;8.00;3.55;;;;;;;-2.36;45.80;102901.56;4910667;28;114489;-75
2024/01/10 06:54:27;;;;;;;7.85;3.25;;;;;;;-2.37;45.35;102910.19;4908009;28;114861;-75
2024/01/10 06:56:54;;;;;;;7.90;4.07;;;;;;;-2.35;45.72;102911.13;4907964;28;123590;-75
2024/01/10 06:59:22;;;;;;;8.27;3.80;;;;;;;-2.35;45.88;102918.91;4896501;28;123684;-75
2024/01/10 07:01:53;;;;;;;10.38;4.18;;;;;;;-2.34;45.49;102912.88;4903267;28;115173;-75
2024/01/10 07:04:23;;;;;;;8.50;3.75;;;;;;;-2.32;45.85;102903.44;4900761;28;113846;-75
2024/01/10 07:06:51;;;;;;;9.88;3.83;;;;;;;-2.31;45.79;102905.25;4908942;28;124260;-75
2024/01/10 07:09:19;;;;;;;9.57;3.95;;;;;;;-2.29;45.96;102898.41;4929015;28;123516;-75
2024/01/10 07:11:47;;;;;;;5.70;3.00;;;;;;;-2.28;45.90;102895.00;4906780;28;113973;-75
2024/01/10 07:14:15;;;;;;;9.18;3.95;;;;;;;-2.26;45.69;102898.53;4929702;28;112968;-75
2024/01/10 07:16:45;;;;;;;12.60;3.58;;;;;;;-2.25;45.88;102905.47;4911658;28;122728;-75
2024/01/10 07:19:13;;;;;;;6.53;3.70;;;;;;;-2.22;45.57;102918.59;4908611;28;123135;-75
2024/01/10 07:21:42;;;;;;;7.38;3.25;;;;;;;-2.22;45.53;102921.19;4925134;28;115831;-74
2024/01/10 07:24:09;;;;;;;9.00;4.28;;;;;;;-2.22;45.84;102925.50;4925056;28;115228;-75
2024/01/10 07:26:38;;;;;;;9.43;3.85;;;;;;;-2.21;46.09;102917.75;4928422;28;123946;-75
2024/01/10 07:29:08;;;;;;;7.03;3.50;;;;;;;-2.21;46.03;102917.75;4909609;28;123435;-75
2024/01/10 07:31:35;;;;;;;8.65;4.22;;;;;;;-2.20;45.77;102929.06;4910195;28;114482;-75
2024/01/10 07:34:06;;;;;;;8.25;3.95;;;;;;;-2.21;45.94;102928.13;4903494;28;113806;-75
2024/01/10 07:36:40;;;;;;;10.77;4.30;;;;;;;-2.21;45.84;102933.34;4922480;28;124889;-75
2024/01/10 07:39:08;;;;;;;10.02;4.00;;;;;;;-2.21;45.64;102933.34;4907345;28;124873;-75
2024/01/10 07:41:35;;;;;;;8.10;3.85;;;;;;;-2.22;45.55;102925.50;4910511;28;114163;-75
2024/01/10 07:44:03;;;;;;;8.48;3.67;;;;;;;-2.21;45.83;102928.13;4894729;28;114306;-75
2024/01/10 07:46:30;;;;;;;10.65;4.38;;;;;;;-2.21;45.85;102922.94;4904104;28;123160;-75
2024/01/10 07:48:57;;;;;;;9.02;4.28;;;;;;;-2.21;45.74;102922.94;4909749;28;123073;-76
2024/01/10 07:51:24;;;;;;;9.98;3.70;;;;;;;-2.22;46.02;102921.19;4891100;28;114484;-75
2024/01/10 07:53:52;;;;;;;10.07;4.28;;;;;;;-2.21;46.29;102907.38;4917192;28;114174;-75
2024/01/10 07:56:19;;;;;;;9.50;4.13;;;;;;;-2.20;45.90;102903.97;4936534;28;122809;-76
2024/01/10 07:58:47;;;;;;;7.53;3.58;;;;;;;-2.19;46.19;102900.53;4929440;28;124240;-75
2024/01/10 08:01:15;;;;;;;7.72;3.80;;;;;;;-2.16;45.85;102900.66;4910404;28;114328;-75
2024/01/10 08:03:42;;;;;;;7.82;3.90;;;;;;;-2.13;46.15;102914.59;4928076;28;115448;-75
2024/01/10 08:06:12;;;;;;;10.55;3.80;;;;;;;-2.11;45.94;102907.75;4926640;28;124826;-75
2024/01/10 08:08:52;;;;;;;7.97;4.20;;;;;;;-2.08;45.82;102919.16;4896146;28;122652;-75
2024/01/10 08:11:20;;;;;;;9.85;4.65;;;;;;;-2.06;46.07;102906.25;4922119;28;115002;-75
2024/01/10 08:13:47;;;;;;;7.03;3.53;;;;;;;-2.07;46.11;102915.75;4928595;28;114944;-75
2024/01/10 08:16:14;;;;;;;9.68;3.80;;;;;;;-2.05;46.11;102915.81;4896927;28;122579;-75
2024/01/10 08:18:42;;;;;;;11.50;4.07;;;;;;;-2.05;45.84;102926.19;4917293;28;123837;-75
2024/01/10 08:21:09;;;;;;;8.07;4.18;;;;;;;-2.04;46.15;102930.56;4907825;28;114017;-75
2024/01/10 08:23:36;;;;;;;11.20;4.45;;;;;;;-2.02;45.76;102923.69;4911321;28;114335;-75
2024/01/10 08:26:08;;;;;;;8.45;4.45;;;;;;;-2.03;45.94;102919.34;4907845;28;124423;-76
2024/01/10 08:28:35;;;;;;;10.38;4.30;;;;;;;-2.02;46.03;102908.13;4905631;28;125508;-75
2024/01/10 08:31:03;;;;;;;10.02;4.38;;;;;;;-2.00;45.73;102901.28;4912632;28;113854;-75
2024/01/10 08:33:32;;;;;;;11.35;3.90;;;;;;;-2.00;46.07;102909.06;4928963;28;114037;-75
2024/01/10 08:35:59;;;;;;;9.32;3.83;;;;;;;-1.96;46.23;102903.16;4929835;28;123533;-75
2024/01/10 08:38:26;;;;;;;14.05;4.95;;;;;;;-1.92;46.36;102905.09;4906146;28;123933;-75
2024/01/10 08:40:54;;;;;;;8.02;4.00;;;;;;;-1.89;46.36;102905.19;4929279;28;114030;-76
2024/01/10 08:43:21;;;;;;;11.55;4.88;;;;;;;-1.86;46.04;102905.31;4912909;28;112762;-75
2024/01/10 08:45:48;;;;;;;11.95;4.57;;;;;;;-1.84;46.29;102901.06;4896823;28;124669;-75
2024/01/10 08:48:16;;;;;;;10.88;4.47;;;;;;;-1.80;46.10;102905.56;4930545;28;123734;-75
2024/01/10 08:50:44;;;;;;;11.73;4.47;;;;;;;-1.78;46.11;102909.09;4914009;28;115077;-76
2024/01/10 08:53:11;;;;;;;11.93;4.70;;;;;;;-1.74;46.55;102904.03;4896312;28;113097;-75
2024/01/10 08:55:38;;;;;;;11.75;4.72;;;;;;;-1.70;46.23;102895.53;4914106;28;125023;-75
2024/01/10 08:58:06;;;;;;;12.25;4.78;;;;;;;-1.66;46.36;102913.00;4913885;28;124779;-75
2024/01/10 09:00:34;;;;;;;12.65;4.88;;;;;;;-1.63;45.97;102902.75;4919113;28;115535;-75
2024/01/10 09:03:02;;;;;;;12.57;5.40;;;;;;;-1.57;46.48;102897.78;4894816;28;115963;-75
2024/01/10 09:05:29;;;;;;;14.27;4.53;;;;;;;-1.53;46.40;102903.97;4899068;28;124571;-75
2024/01/10 09:07:56;;;;;;;11.20;5.10;;;;;;;-1.49;46.18;102906.72;4921710;28;126054;-75
2024/01/10 09:10:27;;;;;;;9.60;4.90;;;;;;;-1.44;46.27;102907.81;4909915;28;114119;-75
2024/01/10 09:12:55;;;;;;;13.00;5.82;;;;;;;-1.39;46.16;102908.88;4926568;28;113841;-75
2024/01/10 09:15:22;;;;;;;11.40;5.43;;;;;;;-1.33;45.95;102917.72;4930362;28;124041;-75
2024/01/10 09:17:52;;;;;;;10.90;4.90;;;;;;;-1.28;46.10;102911.88;4912587;28;123869;-75
2024/01/10 09:20:20;;;;;;;9.65;4.70;;;;;;;-1.23;46.16;102915.50;4926384;28;114632;-75
2024/01/10 09:22:48;;;;;;;9.55;4.30;;;;;;;-1.18;46.31;102918.28;4921000;28;113078;-76
2024/01/10 09:25:17;;;;;;;12.10;5.32;;;;;;;-1.11;46.11;102915.09;4921318;28;124479;-75
2024/01/10 09:27:45;;;;;;;10.57;4.90;;;;;;;-1.06;46.10;102913.53;4902644;28;125002;-75
2024/01/10 09:30:13;;;;;;;11.73;5.13;;;;;;;-1.01;45.78;102911.13;4905037;28;114830;-75
2024/01/10 09:32:40;;;;;;;12.00;5.05;;;;;;;-0.96;45.99;102919.06;4923861;28;114359;-75
2024/01/10 09:35:08;;;;;;;10.43;5.05;;;;;;;-0.90;45.51;102924.50;4906412;28;125040;-75
2024/01/10 09:37:35;;;;;;;11.52;5.60;;;;;;;-0.85;45.64;102928.13;4907067;28;125433;-75
2024/01/10 09:40:03;;;;;;;13.05;5.50;;;;;;;-0.79;45.69;102923.19;4928599;28;114262;-75
2024/01/10 09:42:33;;;;;;;13.23;5.63;;;;;;;-0.73;45.75;102928.59;4912475;28;113630;-75
2024/01/10 09:45:03;;;;;;;14.85;5.20;;;;;;;-0.68;45.82;102937.44;4928547;28;124365;-75
2024/01/10 09:47:32;;;;;;;12.00;4.72;;;;;;;-0.62;45.73;102939.38;4914168;28;124819;-75
2024/01/10 09:50:02;;;;;;;13.93;4.88;;;;;;;-0.55;45.69;102937.88;4928142;28;114124;-76
2024/01/10 09:52:37;;;;;;;11.35;5.15;;;;;;;-0.48;45.62;102939.84;4911944;28;114532;-75
2024/01/10 09:55:05;;;;;;;14.10;5.68;;;;;;;-0.42;45.55;102942.66;4930019;28;123865;-75
2024/01/10 09:57:34;;;;;;;12.65;5.63;;;;;;;-0.37;45.68;102938.50;4895391;28;126464;-75
2024/01/10 10:00:04;;;;;;;14.60;5.70;;;;;;;-0.31;45.42;102938.69;4914332;28;114559;-76
2024/01/10 10:02:33;;;;;;;13.93;5.28;;;;;;;-0.25;45.59;102936.28;4910140;28;114667;-75
2024/01/10 10:05:15;;;;;;;10.32;5.05;;;;;;;-0.16;45.70;102933.13;4928645;28;124278;-75
2024/01/10 10:07:50;;;;;;;14.35;5.53;;;;;;;-0.06;45.60;102934.31;4908156;28;125399;-75
2024/01/10 10:10:18;;;;;;;16.05;6.47;;;;;;;0.02;45.52;102932.84;4890103;28;114598;-76
2024/01/10 10:12:51;;;;;;;11.20;5.13;;;;;;;0.06;45.66;102929.50;4911176;28;114383;-76
2024/01/10 10:15:21;;;;;;;11.43;5.22;;;;;;;0.13;45.45;102936.69;4908930;28;124607;-75
2024/01/10 10:17:50;;;;;;;14.05;5.38;;;;;;;0.19;45.36;102936.88;4923361;28;123639;-75
2024/01/10 10:20:22;;;;;;;14.50;5.70;;;;;;;0.29;45.39;102937.16;4896505;28;114561;-75
2024/01/10 10:23:06;;;;;;;13.00;5.95;;;;;;;0.35;45.30;102926.94;4909686;28;113332;-75
2024/01/10 10:25:35;;;;;;;10.55;5.10;;;;;;;0.42;45.35;102928.88;4911357;28;122222;-76
2024/01/10 10:28:04;;;;;;;16.48;5.97;;;;;;;0.49;45.11;102915.22;4910305;28;125908;-75
2024/01/10 10:30:33;;;;;;;13.07;5.57;;;;;;;0.57;45.22;102916.31;4902221;28;113876;-76
2024/01/10 10:33:02;;;;;;;12.18;5.97;;;;;;;0.64;45.11;102924.31;4908438;28;113060;-76
2024/01/10 10:35:29;;;;;;;13.57;5.85;;;;;;;0.69;45.13;102917.50;4908344;28;122800;-75
2024/01/10 10:38:09;;;;;;;17.63;6.22;;;;;;;0.76;44.93;102914.25;4922156;28;125421;-76
2024/01/10 10:40:36;;;;;;;12.45;5.10;;;;;;;0.83;44.96;102900.56;4912150;28;116472;-75
2024/01/10 10:43:04;;;;;;;13.23;6.32;;;;;;;0.92;45.07;102895.59;4925692;28;114977;-76
2024/01/10 10:45:33;;;;;;;14.10;5.78;;;;;;;1.01;44.67;102905.38;4926125;28;125356;-76
2024/01/10 10:48:01;;;;;;;15.48;5.97;;;;;;;1.07;44.80;102900.31;4903636;28;125953;-76
2024/01/10 10:50:36;;;;;;;15.27;6.07;;;;;;;1.15;44.63;102903.19;4922437;28;114608;-75
2024/01/10 10:53:03;;;;;;;12.93;6.13;;;;;;;1.22;44.36;102894.63;4926136;28;114487;-76
2024/01/10 10:55:34;;;;;;;14.10;6.18;;;;;;;1.26;44.55;102901.75;4908131;28;125279;-75
2024/01/10 10:58:04;;;;;;;15.23;6.40;;;;;;;1.32;44.54;102907.13;4929869;28;124458;-76
2024/01/10 11:00:39;;;;;;;16.50;6.32;;;;;;;1.39;44.58;102897.69;4893554;28;115135;-76
2024/01/10 11:03:11;;;;;;;14.25;5.85;;;;;;;1.47;44.42;102895.28;4906766;28;114242;-75
2024/01/10 11:05:40;;;;;;;15.52;6.78;;;;;;;1.54;44.43;102886.78;4903442;28;124049;-76
2024/01/10 11:08:14;;;;;;;14.35;6.45;;;;;;;1.63;44.46;102886.13;4907444;28;123565;-76
2024/01/10 11:10:43;;;;;;;13.57;6.25;;;;;;;1.68;44.05;102890.63;4902744;28;115326;-76
2024/01/10 11:13:36;;;;;;;15.27;7.13;;;;;;;1.75;43.50;102887.31;4917292;28;114270;-76
2024/01/10 11:16:40;;;;;;;12.77;5.85;;;;;;;1.78;43.75;102885.63;4885854;28;125918;-77
2024/01/10 11:19:29;;;;;;;13.07;5.50;;;;;;;1.84;43.87;102891.00;4905350;28;123932;-76
2024/01/10 11:22:26;;;;;;;14.13;6.30;;;;;;;1.91;43.57;102882.47;4908495;28;114193;-76